Data Viewer
| City | State | Eastern Time | Source | Temp | DewPt | RH | BP | 5 Min Precip | Wind Speed | Wind Dir | 5 Min Wind Max | 5 Min Wind Max Dir |
|---|---|---|---|---|---|---|---|---|---|---|---|---|
| Ocean City | NJ | 2026-05-09 12:04 | NCAWOS | 63 | 29.91 | 9 | SSW | |||||
| Ocean City | NJ | 2026-05-10 09:09 | NCAWOS | 63 | 29.94 | 6 | NNW | |||||
| Ocean City | NJ | 2026-05-10 07:19 | NCAWOS | 63 | 29.89 | 3 | W | |||||
| Ocean City | NJ | 2026-05-10 07:24 | NCAWOS | 63 | 29.90 | 3 | W | |||||
| Ocean City | NJ | 2026-05-10 08:04 | NCAWOS | 63 | 29.91 | 5 | NW | |||||
| Ocean City | NJ | 2026-05-10 08:14 | NCAWOS | 63 | 29.92 | 5 | NNW | |||||
| Ocean City | NJ | 2026-05-10 08:19 | NCAWOS | 63 | 29.92 | 5 | NNW | |||||
| Ocean City | NJ | 2026-05-10 09:04 | NCAWOS | 63 | 29.94 | 5 | NW | |||||
| Ocean City | NJ | 2026-05-10 09:14 | NCAWOS | 63 | 29.94 | 6 | NNW | |||||
| Ocean City | NJ | 2026-05-10 07:09 | NCAWOS | 61 | 29.89 | 0 | N | |||||
| Ocean City | NJ | 2026-05-10 09:19 | NCAWOS | 63 | 29.94 | 5 | N | |||||
| Ocean City | NJ | 2026-05-10 10:04 | NCAWOS | 66 | 29.94 | 5 | N | |||||
| Ocean City | NJ | 2026-05-10 10:14 | NCAWOS | 68 | 29.93 | 3 | N | |||||
| Ocean City | NJ | 2026-05-10 11:04 | NCAWOS | 64 | 29.95 | 6 | SSE | |||||
| Ocean City | NJ | 2026-05-10 11:09 | NCAWOS | 64 | 29.95 | 6 | SSE | |||||
| Ocean City | NJ | 2026-05-10 11:14 | NCAWOS | 64 | 29.95 | 5 | SSE | |||||
| Ocean City | NJ | 2026-05-10 07:14 | NCAWOS | 63 | 29.89 | 0 | N | |||||
| Ocean City | NJ | 2026-05-10 07:04 | NCAWOS | 61 | 29.89 | 0 | N | |||||
| Ocean City | NJ | 2026-05-10 02:09 | NCAWOS | 55 | 29.85 | 0 | N | |||||
| Ocean City | NJ | 2026-05-10 04:05 | NCAWOS | 55 | 29.85 | 0 | N | |||||
| Ocean City | NJ | 2026-05-10 02:29 | NCAWOS | 55 | 29.85 | 0 | N | |||||
| Ocean City | NJ | 2026-05-10 03:04 | NCAWOS | 55 | 29.85 | 0 | N | |||||
| Ocean City | NJ | 2026-05-10 03:09 | NCAWOS | 55 | 29.85 | 0 | N | |||||
| Ocean City | NJ | 2026-05-10 03:14 | NCAWOS | 55 | 29.85 | 0 | N | |||||
| Ocean City | NJ | 2026-05-10 03:19 | NCAWOS | 55 | 29.85 | 0 | N | |||||
| Ocean City | NJ | 2026-05-10 03:24 | NCAWOS | 55 | 29.85 | 0 | N | |||||
| Ocean City | NJ | 2026-05-10 04:10 | NCAWOS | 55 | 29.85 | 0 | N | |||||
| Ocean City | NJ | 2026-05-10 06:14 | NCAWOS | 57 | 29.87 | 0 | N | |||||
| Ocean City | NJ | 2026-05-10 04:15 | NCAWOS | 55 | 29.85 | 0 | N | |||||
| Ocean City | NJ | 2026-05-10 05:04 | NCAWOS | 55 | 29.85 | 3 | SSE | |||||
| Ocean City | NJ | 2026-05-10 05:09 | NCAWOS | 55 | 29.85 | 3 | S | |||||
| Ocean City | NJ | 2026-05-10 05:14 | NCAWOS | 55 | 29.85 | 3 | SSW | |||||
| Ocean City | NJ | 2026-05-10 06:04 | NCAWOS | 55 | 29.87 | 0 | N | |||||
| Ocean City | NJ | 2026-05-10 06:09 | NCAWOS | 55 | 29.87 | 0 | N | |||||
| Ocean City | NJ | 2026-05-10 11:19 | NCAWOS | 64 | 29.95 | 7 | SSE |
data collection created in 0.0070722103118896 (queried in 0.002084) rendered in: 5.2213668823242E-5

